sensor_id;sensor_type;location;lat;lon;timestamp;temperature;humidity
11264;DHT22;5689;48.798;9.070;2023-08-31T00:02:17;13.70;99.90
11264;DHT22;5689;48.798;9.070;2023-08-31T00:04:46;13.70;99.90
11264;DHT22;5689;48.798;9.070;2023-08-31T00:07:14;13.70;99.90
11264;DHT22;5689;48.798;9.070;2023-08-31T00:09:42;13.70;99.90
11264;DHT22;5689;48.798;9.070;2023-08-31T00:12:10;13.70;99.90
11264;DHT22;5689;48.798;9.070;2023-08-31T00:14:38;13.70;99.90
11264;DHT22;5689;48.798;9.070;2023-08-31T00:17:08;13.70;99.90
11264;DHT22;5689;48.798;9.070;2023-08-31T00:19:36;13.60;99.90
11264;DHT22;5689;48.798;9.070;2023-08-31T00:22:04;13.50;99.90
11264;DHT22;5689;48.798;9.070;2023-08-31T00:24:32;13.40;99.90
11264;DHT22;5689;48.798;9.070;2023-08-31T00:27:02;13.40;99.90
11264;DHT22;5689;48.798;9.070;2023-08-31T00:29:30;13.40;99.90
11264;DHT22;5689;48.798;9.070;2023-08-31T00:31:58;13.40;99.90
11264;DHT22;5689;48.798;9.070;2023-08-31T00:34:27;13.40;99.90
11264;DHT22;5689;48.798;9.070;2023-08-31T00:36:55;13.30;99.90
11264;DHT22;5689;48.798;9.070;2023-08-31T00:39:23;13.30;99.90
11264;DHT22;5689;48.798;9.070;2023-08-31T00:41:53;13.30;99.90
11264;DHT22;5689;48.798;9.070;2023-08-31T00:44:20;13.20;99.90
11264;DHT22;5689;48.798;9.070;2023-08-31T00:46:49;13.10;99.90
11264;DHT22;5689;48.798;9.070;2023-08-31T00:49:17;13.10;99.90
11264;DHT22;5689;48.798;9.070;2023-08-31T00:51:47;13.10;99.90
11264;DHT22;5689;48.798;9.070;2023-08-31T00:54:17;13.20;99.90
11264;DHT22;5689;48.798;9.070;2023-08-31T00:56:46;13.10;99.90
11264;DHT22;5689;48.798;9.070;2023-08-31T00:59:14;13.20;99.90
11264;DHT22;5689;48.798;9.070;2023-08-31T01:01:49;13.20;99.90
11264;DHT22;5689;48.798;9.070;2023-08-31T01:04:21;13.20;99.90
11264;DHT22;5689;48.798;9.070;2023-08-31T01:07:02;13.20;99.90
11264;DHT22;5689;48.798;9.070;2023-08-31T01:09:39;13.20;99.90
11264;DHT22;5689;48.798;9.070;2023-08-31T01:12:11;13.10;99.90
11264;DHT22;5689;48.798;9.070;2023-08-31T01:14:44;13.20;99.90
11264;DHT22;5689;48.798;9.070;2023-08-31T01:17:14;13.20;99.90
11264;DHT22;5689;48.798;9.070;2023-08-31T01:19:47;13.10;99.90
11264;DHT22;5689;48.798;9.070;2023-08-31T01:22:25;13.10;99.90
11264;DHT22;5689;48.798;9.070;2023-08-31T01:24:56;13.10;99.90
11264;DHT22;5689;48.798;9.070;2023-08-31T01:27:24;13.10;99.90
11264;DHT22;5689;48.798;9.070;2023-08-31T01:29:54;13.10;99.90
11264;DHT22;5689;48.798;9.070;2023-08-31T01:32:23;13.00;99.90
11264;DHT22;5689;48.798;9.070;2023-08-31T01:34:52;13.00;99.90
11264;DHT22;5689;48.798;9.070;2023-08-31T01:37:31;13.00;99.90
11264;DHT22;5689;48.798;9.070;2023-08-31T01:40:08;13.00;99.90
11264;DHT22;5689;48.798;9.070;2023-08-31T01:42:39;13.00;99.90
11264;DHT22;5689;48.798;9.070;2023-08-31T01:45:08;13.00;99.90
11264;DHT22;5689;48.798;9.070;2023-08-31T01:47:38;13.00;99.90
11264;DHT22;5689;48.798;9.070;2023-08-31T01:50:06;13.10;99.90
11264;DHT22;5689;48.798;9.070;2023-08-31T01:52:34;13.20;99.90
11264;DHT22;5689;48.798;9.070;2023-08-31T01:55:06;13.20;99.90
11264;DHT22;5689;48.798;9.070;2023-08-31T01:57:34;13.20;99.90
11264;DHT22;5689;48.798;9.070;2023-08-31T02:00:10;13.10;99.90
11264;DHT22;5689;48.798;9.070;2023-08-31T02:02:41;13.10;99.90
11264;DHT22;5689;48.798;9.070;2023-08-31T02:05:09;13.10;99.90
11264;DHT22;5689;48.798;9.070;2023-08-31T02:07:37;13.10;99.90
11264;DHT22;5689;48.798;9.070;2023-08-31T02:10:08;13.10;99.90
11264;DHT22;5689;48.798;9.070;2023-08-31T02:12:37;13.10;99.90
11264;DHT22;5689;48.798;9.070;2023-08-31T02:15:05;13.20;99.90
11264;DHT22;5689;48.798;9.070;2023-08-31T02:17:34;13.10;99.90
11264;DHT22;5689;48.798;9.070;2023-08-31T02:20:02;13.10;99.90
11264;DHT22;5689;48.798;9.070;2023-08-31T02:22:33;13.10;99.90
11264;DHT22;5689;48.798;9.070;2023-08-31T02:25:01;13.20;99.90
11264;DHT22;5689;48.798;9.070;2023-08-31T02:27:31;13.20;99.90
11264;DHT22;5689;48.798;9.070;2023-08-31T02:29:59;13.20;99.90
11264;DHT22;5689;48.798;9.070;2023-08-31T02:32:27;13.20;99.90
11264;DHT22;5689;48.798;9.070;2023-08-31T02:34:55;13.20;99.90
11264;DHT22;5689;48.798;9.070;2023-08-31T02:37:23;13.30;99.90
11264;DHT22;5689;48.798;9.070;2023-08-31T02:39:51;13.20;99.90
11264;DHT22;5689;48.798;9.070;2023-08-31T02:42:19;13.20;99.90
11264;DHT22;5689;48.798;9.070;2023-08-31T02:44:52;13.30;99.90
11264;DHT22;5689;48.798;9.070;2023-08-31T02:47:20;13.40;99.90
11264;DHT22;5689;48.798;9.070;2023-08-31T02:49:48;13.30;99.90
11264;DHT22;5689;48.798;9.070;2023-08-31T02:52:17;13.40;99.90
11264;DHT22;5689;48.798;9.070;2023-08-31T02:54:45;13.40;99.90
11264;DHT22;5689;48.798;9.070;2023-08-31T02:57:13;13.40;99.90
11264;DHT22;5689;48.798;9.070;2023-08-31T02:59:42;13.40;99.90
11264;DHT22;5689;48.798;9.070;2023-08-31T03:02:11;13.40;99.90
11264;DHT22;5689;48.798;9.070;2023-08-31T03:04:41;13.30;99.90
11264;DHT22;5689;48.798;9.070;2023-08-31T03:07:09;13.30;99.90
11264;DHT22;5689;48.798;9.070;2023-08-31T03:09:40;13.20;99.90
11264;DHT22;5689;48.798;9.070;2023-08-31T03:12:08;13.20;99.90
11264;DHT22;5689;48.798;9.070;2023-08-31T03:14:36;13.10;99.90
11264;DHT22;5689;48.798;9.070;2023-08-31T03:17:04;13.00;99.90
11264;DHT22;5689;48.798;9.070;2023-08-31T03:19:34;13.00;99.90
11264;DHT22;5689;48.798;9.070;2023-08-31T03:22:02;13.00;99.90
11264;DHT22;5689;48.798;9.070;2023-08-31T03:24:31;12.90;99.90
11264;DHT22;5689;48.798;9.070;2023-08-31T03:26:59;13.00;99.90
11264;DHT22;5689;48.798;9.070;2023-08-31T03:29:27;13.00;99.90
11264;DHT22;5689;48.798;9.070;2023-08-31T03:32:00;13.00;99.90
11264;DHT22;5689;48.798;9.070;2023-08-31T03:34:29;13.00;99.90
11264;DHT22;5689;48.798;9.070;2023-08-31T03:36:58;13.10;99.90
11264;DHT22;5689;48.798;9.070;2023-08-31T03:39:26;13.10;99.90
11264;DHT22;5689;48.798;9.070;2023-08-31T03:41:54;13.00;99.90
11264;DHT22;5689;48.798;9.070;2023-08-31T03:44:22;12.90;99.90
11264;DHT22;5689;48.798;9.070;2023-08-31T03:46:50;12.90;99.90
11264;DHT22;5689;48.798;9.070;2023-08-31T03:49:18;13.00;99.90
11264;DHT22;5689;48.798;9.070;2023-08-31T03:51:46;13.10;99.90
11264;DHT22;5689;48.798;9.070;2023-08-31T03:54:16;13.20;99.90
11264;DHT22;5689;48.798;9.070;2023-08-31T03:56:44;13.20;99.90
11264;DHT22;5689;48.798;9.070;2023-08-31T03:59:12;13.10;99.90
11264;DHT22;5689;48.798;9.070;2023-08-31T04:01:40;12.90;99.90
11264;DHT22;5689;48.798;9.070;2023-08-31T04:04:10;12.70;99.90
11264;DHT22;5689;48.798;9.070;2023-08-31T04:06:38;12.70;99.90
11264;DHT22;5689;48.798;9.070;2023-08-31T04:09:06;12.70;99.90
11264;DHT22;5689;48.798;9.070;2023-08-31T04:11:35;12.70;99.90
11264;DHT22;5689;48.798;9.070;2023-08-31T04:14:04;12.70;99.90
11264;DHT22;5689;48.798;9.070;2023-08-31T04:16:32;12.70;99.90
11264;DHT22;5689;48.798;9.070;2023-08-31T04:19:00;12.70;99.90
11264;DHT22;5689;48.798;9.070;2023-08-31T04:21:29;12.70;99.90
11264;DHT22;5689;48.798;9.070;2023-08-31T04:23:57;12.70;99.90
11264;DHT22;5689;48.798;9.070;2023-08-31T04:26:26;12.80;99.90
11264;DHT22;5689;48.798;9.070;2023-08-31T04:29:02;12.80;99.90
11264;DHT22;5689;48.798;9.070;2023-08-31T04:31:32;12.80;99.90
11264;DHT22;5689;48.798;9.070;2023-08-31T04:34:00;12.90;99.90
11264;DHT22;5689;48.798;9.070;2023-08-31T04:36:28;12.80;99.90
11264;DHT22;5689;48.798;9.070;2023-08-31T04:38:56;12.80;99.90
11264;DHT22;5689;48.798;9.070;2023-08-31T04:41:24;12.70;99.90
11264;DHT22;5689;48.798;9.070;2023-08-31T04:43:52;12.70;99.90
11264;DHT22;5689;48.798;9.070;2023-08-31T04:46:21;12.70;99.90
11264;DHT22;5689;48.798;9.070;2023-08-31T04:48:49;12.70;99.90
11264;DHT22;5689;48.798;9.070;2023-08-31T04:51:31;12.80;99.90
11264;DHT22;5689;48.798;9.070;2023-08-31T04:54:00;12.80;99.90
11264;DHT22;5689;48.798;9.070;2023-08-31T04:56:31;12.80;99.90
11264;DHT22;5689;48.798;9.070;2023-08-31T04:59:00;12.90;99.90
11264;DHT22;5689;48.798;9.070;2023-08-31T05:01:30;12.80;99.90
11264;DHT22;5689;48.798;9.070;2023-08-31T05:03:59;12.80;99.90
11264;DHT22;5689;48.798;9.070;2023-08-31T05:06:27;12.90;99.90
11264;DHT22;5689;48.798;9.070;2023-08-31T05:08:55;12.90;99.90
11264;DHT22;5689;48.798;9.070;2023-08-31T05:11:23;12.90;99.90
11264;DHT22;5689;48.798;9.070;2023-08-31T05:13:51;12.90;99.90
11264;DHT22;5689;48.798;9.070;2023-08-31T05:16:19;13.00;99.90
11264;DHT22;5689;48.798;9.070;2023-08-31T05:18:49;13.00;99.90
11264;DHT22;5689;48.798;9.070;2023-08-31T05:21:17;12.80;99.90
11264;DHT22;5689;48.798;9.070;2023-08-31T05:23:45;12.70;99.90
11264;DHT22;5689;48.798;9.070;2023-08-31T05:26:13;12.80;99.90
11264;DHT22;5689;48.798;9.070;2023-08-31T05:28:42;12.90;99.90
11264;DHT22;5689;48.798;9.070;2023-08-31T05:31:11;13.10;99.90
11264;DHT22;5689;48.798;9.070;2023-08-31T05:33:39;13.30;99.90
11264;DHT22;5689;48.798;9.070;2023-08-31T05:36:08;13.40;99.90
11264;DHT22;5689;48.798;9.070;2023-08-31T05:38:36;13.40;99.90
11264;DHT22;5689;48.798;9.070;2023-08-31T05:41:08;13.30;99.90
11264;DHT22;5689;48.798;9.070;2023-08-31T05:43:37;13.40;99.90
11264;DHT22;5689;48.798;9.070;2023-08-31T05:46:07;13.40;99.90
11264;DHT22;5689;48.798;9.070;2023-08-31T05:48:35;13.30;99.90
11264;DHT22;5689;48.798;9.070;2023-08-31T05:51:04;13.60;99.90
11264;DHT22;5689;48.798;9.070;2023-08-31T05:53:33;14.10;99.90
11264;DHT22;5689;48.798;9.070;2023-08-31T05:56:01;14.30;99.90
11264;DHT22;5689;48.798;9.070;2023-08-31T05:58:32;14.60;99.90
11264;DHT22;5689;48.798;9.070;2023-08-31T06:01:01;14.90;99.90
11264;DHT22;5689;48.798;9.070;2023-08-31T06:03:29;15.10;99.90
11264;DHT22;5689;48.798;9.070;2023-08-31T06:05:58;15.30;99.90
11264;DHT22;5689;48.798;9.070;2023-08-31T06:08:27;15.30;99.90
11264;DHT22;5689;48.798;9.070;2023-08-31T06:10:57;15.30;99.90
11264;DHT22;5689;48.798;9.070;2023-08-31T06:13:25;15.60;99.90
11264;DHT22;5689;48.798;9.070;2023-08-31T06:15:54;15.80;99.90
11264;DHT22;5689;48.798;9.070;2023-08-31T06:18:24;16.00;99.90
11264;DHT22;5689;48.798;9.070;2023-08-31T06:20:52;16.10;99.90
11264;DHT22;5689;48.798;9.070;2023-08-31T06:23:20;16.50;99.90
11264;DHT22;5689;48.798;9.070;2023-08-31T06:25:48;16.90;99.90
11264;DHT22;5689;48.798;9.070;2023-08-31T06:28:17;16.90;99.90
11264;DHT22;5689;48.798;9.070;2023-08-31T06:30:45;17.30;99.90
11264;DHT22;5689;48.798;9.070;2023-08-31T06:33:14;17.40;99.90
11264;DHT22;5689;48.798;9.070;2023-08-31T06:35:42;17.20;99.90
11264;DHT22;5689;48.798;9.070;2023-08-31T06:38:10;17.30;99.90
11264;DHT22;5689;48.798;9.070;2023-08-31T06:40:38;17.70;99.90
11264;DHT22;5689;48.798;9.070;2023-08-31T06:43:06;17.90;99.90
11264;DHT22;5689;48.798;9.070;2023-08-31T06:45:36;17.30;99.90
11264;DHT22;5689;48.798;9.070;2023-08-31T06:48:04;16.40;99.90
11264;DHT22;5689;48.798;9.070;2023-08-31T06:50:33;16.40;99.90
11264;DHT22;5689;48.798;9.070;2023-08-31T06:53:03;17.10;99.90
11264;DHT22;5689;48.798;9.070;2023-08-31T06:55:31;17.50;99.90
11264;DHT22;5689;48.798;9.070;2023-08-31T06:58:01;16.90;99.90
11264;DHT22;5689;48.798;9.070;2023-08-31T07:00:30;16.60;99.90
11264;DHT22;5689;48.798;9.070;2023-08-31T07:03:00;16.30;99.90
11264;DHT22;5689;48.798;9.070;2023-08-31T07:05:33;15.90;99.90
11264;DHT22;5689;48.798;9.070;2023-08-31T07:08:02;15.70;99.90
11264;DHT22;5689;48.798;9.070;2023-08-31T07:10:30;15.70;99.90
11264;DHT22;5689;48.798;9.070;2023-08-31T07:12:58;15.80;99.90
11264;DHT22;5689;48.798;9.070;2023-08-31T07:15:26;15.80;99.90
11264;DHT22;5689;48.798;9.070;2023-08-31T07:17:54;15.80;99.90
11264;DHT22;5689;48.798;9.070;2023-08-31T07:20:24;15.80;99.90
11264;DHT22;5689;48.798;9.070;2023-08-31T07:22:52;16.40;99.90
11264;DHT22;5689;48.798;9.070;2023-08-31T07:25:21;17.70;99.90
11264;DHT22;5689;48.798;9.070;2023-08-31T07:27:49;18.90;99.90
11264;DHT22;5689;48.798;9.070;2023-08-31T07:30:17;20.10;99.90
11264;DHT22;5689;48.798;9.070;2023-08-31T07:32:45;21.00;99.90
11264;DHT22;5689;48.798;9.070;2023-08-31T07:35:13;20.80;99.90
11264;DHT22;5689;48.798;9.070;2023-08-31T07:37:43;21.10;99.90
11264;DHT22;5689;48.798;9.070;2023-08-31T07:40:11;21.40;99.90
11264;DHT22;5689;48.798;9.070;2023-08-31T07:42:39;21.70;99.90
11264;DHT22;5689;48.798;9.070;2023-08-31T07:45:08;21.20;99.90
11264;DHT22;5689;48.798;9.070;2023-08-31T07:47:36;21.00;99.90
11264;DHT22;5689;48.798;9.070;2023-08-31T07:50:06;20.30;99.90
11264;DHT22;5689;48.798;9.070;2023-08-31T07:52:34;20.90;99.90
11264;DHT22;5689;48.798;9.070;2023-08-31T07:55:03;22.70;99.90
11264;DHT22;5689;48.798;9.070;2023-08-31T07:57:32;23.20;97.20
11264;DHT22;5689;48.798;9.070;2023-08-31T08:00:01;23.60;94.50
11264;DHT22;5689;48.798;9.070;2023-08-31T08:02:38;23.90;92.00
11264;DHT22;5689;48.798;9.070;2023-08-31T08:05:07;23.90;92.30
11264;DHT22;5689;48.798;9.070;2023-08-31T08:07:35;23.40;90.80
11264;DHT22;5689;48.798;9.070;2023-08-31T08:10:05;23.60;90.50
11264;DHT22;5689;48.798;9.070;2023-08-31T08:12:37;23.70;90.90
11264;DHT22;5689;48.798;9.070;2023-08-31T08:15:07;23.40;88.10
11264;DHT22;5689;48.798;9.070;2023-08-31T08:17:35;23.60;89.00
11264;DHT22;5689;48.798;9.070;2023-08-31T08:20:06;22.60;88.20
11264;DHT22;5689;48.798;9.070;2023-08-31T08:22:34;21.70;91.90
11264;DHT22;5689;48.798;9.070;2023-08-31T08:25:04;20.50;92.30
11264;DHT22;5689;48.798;9.070;2023-08-31T08:27:33;21.90;88.10
11264;DHT22;5689;48.798;9.070;2023-08-31T08:30:01;23.40;84.70
11264;DHT22;5689;48.798;9.070;2023-08-31T08:32:30;23.70;81.90
11264;DHT22;5689;48.798;9.070;2023-08-31T08:34:58;24.30;84.30
11264;DHT22;5689;48.798;9.070;2023-08-31T08:37:26;23.50;85.20
11264;DHT22;5689;48.798;9.070;2023-08-31T08:39:56;22.40;86.90
11264;DHT22;5689;48.798;9.070;2023-08-31T08:42:25;22.60;87.80
11264;DHT22;5689;48.798;9.070;2023-08-31T08:44:56;24.60;81.90
11264;DHT22;5689;48.798;9.070;2023-08-31T08:47:25;23.80;79.00
11264;DHT22;5689;48.798;9.070;2023-08-31T08:49:54;22.10;84.30
11264;DHT22;5689;48.798;9.070;2023-08-31T08:52:22;21.70;87.20
11264;DHT22;5689;48.798;9.070;2023-08-31T08:54:50;22.90;87.60
11264;DHT22;5689;48.798;9.070;2023-08-31T08:57:19;23.30;85.90
11264;DHT22;5689;48.798;9.070;2023-08-31T08:59:48;23.50;77.20
11264;DHT22;5689;48.798;9.070;2023-08-31T09:02:16;22.00;86.00
11264;DHT22;5689;48.798;9.070;2023-08-31T09:04:44;23.20;86.60
11264;DHT22;5689;48.798;9.070;2023-08-31T09:07:12;23.30;88.20
11264;DHT22;5689;48.798;9.070;2023-08-31T09:09:48;21.70;87.40
11264;DHT22;5689;48.798;9.070;2023-08-31T09:12:17;22.60;87.50
11264;DHT22;5689;48.798;9.070;2023-08-31T09:14:58;23.70;78.20
11264;DHT22;5689;48.798;9.070;2023-08-31T09:17:28;21.70;82.00
11264;DHT22;5689;48.798;9.070;2023-08-31T09:20:05;21.70;78.30
11264;DHT22;5689;48.798;9.070;2023-08-31T09:22:33;23.20;76.50
11264;DHT22;5689;48.798;9.070;2023-08-31T09:25:02;23.10;73.50
11264;DHT22;5689;48.798;9.070;2023-08-31T09:27:30;23.30;74.70
11264;DHT22;5689;48.798;9.070;2023-08-31T09:30:01;24.00;74.40
11264;DHT22;5689;48.798;9.070;2023-08-31T09:32:30;25.00;74.80
11264;DHT22;5689;48.798;9.070;2023-08-31T09:34:58;25.30;71.20
11264;DHT22;5689;48.798;9.070;2023-08-31T09:37:36;23.40;75.50
11264;DHT22;5689;48.798;9.070;2023-08-31T09:40:05;23.30;76.20
11264;DHT22;5689;48.798;9.070;2023-08-31T09:42:36;22.50;77.00
11264;DHT22;5689;48.798;9.070;2023-08-31T09:45:08;21.60;78.50
11264;DHT22;5689;48.798;9.070;2023-08-31T09:47:36;21.30;80.10
11264;DHT22;5689;48.798;9.070;2023-08-31T09:50:05;21.10;80.10
11264;DHT22;5689;48.798;9.070;2023-08-31T09:52:33;22.10;81.60
11264;DHT22;5689;48.798;9.070;2023-08-31T09:55:02;23.80;77.50
11264;DHT22;5689;48.798;9.070;2023-08-31T09:57:32;24.80;73.90
11264;DHT22;5689;48.798;9.070;2023-08-31T10:00:12;24.50;76.60
11264;DHT22;5689;48.798;9.070;2023-08-31T10:02:43;23.90;71.50
11264;DHT22;5689;48.798;9.070;2023-08-31T10:05:11;22.90;72.20
11264;DHT22;5689;48.798;9.070;2023-08-31T10:07:40;22.70;74.20
11264;DHT22;5689;48.798;9.070;2023-08-31T10:10:08;24.30;69.20
11264;DHT22;5689;48.798;9.070;2023-08-31T10:12:37;23.00;70.70
11264;DHT22;5689;48.798;9.070;2023-08-31T10:15:07;22.70;72.50
11264;DHT22;5689;48.798;9.070;2023-08-31T10:17:36;21.90;73.50
11264;DHT22;5689;48.798;9.070;2023-08-31T10:20:06;20.90;76.30
11264;DHT22;5689;48.798;9.070;2023-08-31T10:22:36;20.20;77.80
11264;DHT22;5689;48.798;9.070;2023-08-31T10:25:05;20.40;81.20
11264;DHT22;5689;48.798;9.070;2023-08-31T10:27:37;22.30;76.70
11264;DHT22;5689;48.798;9.070;2023-08-31T10:30:29;22.80;73.20
11264;DHT22;5689;48.798;9.070;2023-08-31T10:33:21;21.60;75.80
11264;DHT22;5689;48.798;9.070;2023-08-31T10:35:51;20.80;77.20
11264;DHT22;5689;48.798;9.070;2023-08-31T10:38:27;20.30;78.50
11264;DHT22;5689;48.798;9.070;2023-08-31T10:41:01;19.90;82.10
11264;DHT22;5689;48.798;9.070;2023-08-31T10:43:46;20.40;81.80
11264;DHT22;5689;48.798;9.070;2023-08-31T10:46:24;20.80;79.30
11264;DHT22;5689;48.798;9.070;2023-08-31T10:48:56;21.10;79.80
11264;DHT22;5689;48.798;9.070;2023-08-31T10:51:26;20.40;80.70
11264;DHT22;5689;48.798;9.070;2023-08-31T10:54:10;19.80;83.10
11264;DHT22;5689;48.798;9.070;2023-08-31T10:57:04;20.30;80.30
11264;DHT22;5689;48.798;9.070;2023-08-31T10:59:46;20.00;83.30
11264;DHT22;5689;48.798;9.070;2023-08-31T11:02:33;20.60;80.50
11264;DHT22;5689;48.798;9.070;2023-08-31T11:05:07;20.50;79.90
11264;DHT22;5689;48.798;9.070;2023-08-31T11:07:36;19.90;83.90
11264;DHT22;5689;48.798;9.070;2023-08-31T11:10:12;19.60;84.70
11264;DHT22;5689;48.798;9.070;2023-08-31T11:12:42;19.70;85.30
11264;DHT22;5689;48.798;9.070;2023-08-31T11:15:14;20.70;81.90
11264;DHT22;5689;48.798;9.070;2023-08-31T11:17:43;22.30;81.00
11264;DHT22;5689;48.798;9.070;2023-08-31T11:20:15;24.80;73.70
11264;DHT22;5689;48.798;9.070;2023-08-31T11:22:45;24.40;76.30
11264;DHT22;5689;48.798;9.070;2023-08-31T11:25:14;22.30;79.70
11264;DHT22;5689;48.798;9.070;2023-08-31T11:27:58;22.80;81.00
11264;DHT22;5689;48.798;9.070;2023-08-31T11:30:27;25.50;71.10
11264;DHT22;5689;48.798;9.070;2023-08-31T11:32:55;26.30;68.00
11264;DHT22;5689;48.798;9.070;2023-08-31T11:35:32;25.30;70.10
11264;DHT22;5689;48.798;9.070;2023-08-31T11:38:02;23.50;74.40
11264;DHT22;5689;48.798;9.070;2023-08-31T11:40:31;22.70;75.00
11264;DHT22;5689;48.798;9.070;2023-08-31T11:42:59;22.60;74.90
11264;DHT22;5689;48.798;9.070;2023-08-31T11:45:28;23.40;74.60
11264;DHT22;5689;48.798;9.070;2023-08-31T11:47:57;23.60;73.80
11264;DHT22;5689;48.798;9.070;2023-08-31T11:50:27;23.80;73.10
11264;DHT22;5689;48.798;9.070;2023-08-31T11:52:56;23.40;73.70
11264;DHT22;5689;48.798;9.070;2023-08-31T11:55:24;23.00;74.40
11264;DHT22;5689;48.798;9.070;2023-08-31T11:57:52;22.40;74.50
11264;DHT22;5689;48.798;9.070;2023-08-31T12:00:22;22.00;77.00
11264;DHT22;5689;48.798;9.070;2023-08-31T12:02:56;22.00;77.30
11264;DHT22;5689;48.798;9.070;2023-08-31T12:05:27;21.80;76.20
11264;DHT22;5689;48.798;9.070;2023-08-31T12:07:55;21.30;79.60
11264;DHT22;5689;48.798;9.070;2023-08-31T12:10:24;20.90;79.70
11264;DHT22;5689;48.798;9.070;2023-08-31T12:12:52;20.70;83.20
11264;DHT22;5689;48.798;9.070;2023-08-31T12:15:22;22.70;77.50
11264;DHT22;5689;48.798;9.070;2023-08-31T12:17:50;25.40;73.20
11264;DHT22;5689;48.798;9.070;2023-08-31T12:20:24;26.50;68.30
11264;DHT22;5689;48.798;9.070;2023-08-31T12:22:54;25.70;69.70
11264;DHT22;5689;48.798;9.070;2023-08-31T12:25:22;22.90;75.10
11264;DHT22;5689;48.798;9.070;2023-08-31T12:27:51;24.80;73.30
11264;DHT22;5689;48.798;9.070;2023-08-31T12:30:18;27.00;69.10
11264;DHT22;5689;48.798;9.070;2023-08-31T12:32:46;28.90;64.00
11264;DHT22;5689;48.798;9.070;2023-08-31T12:35:15;29.60;61.50
11264;DHT22;5689;48.798;9.070;2023-08-31T12:37:43;28.20;59.60
11264;DHT22;5689;48.798;9.070;2023-08-31T12:40:12;26.10;65.10
11264;DHT22;5689;48.798;9.070;2023-08-31T12:42:42;24.70;67.50
11264;DHT22;5689;48.798;9.070;2023-08-31T12:45:10;22.70;74.00
11264;DHT22;5689;48.798;9.070;2023-08-31T12:47:38;21.80;76.70
11264;DHT22;5689;48.798;9.070;2023-08-31T12:50:06;21.50;77.80
11264;DHT22;5689;48.798;9.070;2023-08-31T12:52:34;21.80;76.60
11264;DHT22;5689;48.798;9.070;2023-08-31T12:55:03;21.80;77.90
11264;DHT22;5689;48.798;9.070;2023-08-31T12:57:32;21.40;78.70
11264;DHT22;5689;48.798;9.070;2023-08-31T13:00:00;21.20;79.70
11264;DHT22;5689;48.798;9.070;2023-08-31T13:02:28;21.10;80.20
11264;DHT22;5689;48.798;9.070;2023-08-31T13:04:56;21.10;79.00
11264;DHT22;5689;48.798;9.070;2023-08-31T13:07:24;21.80;76.30
11264;DHT22;5689;48.798;9.070;2023-08-31T13:09:52;22.20;76.10
11264;DHT22;5689;48.798;9.070;2023-08-31T13:12:20;22.20;77.90
11264;DHT22;5689;48.798;9.070;2023-08-31T13:14:49;22.70;76.80
11264;DHT22;5689;48.798;9.070;2023-08-31T13:17:17;22.90;74.80
11264;DHT22;5689;48.798;9.070;2023-08-31T13:19:45;25.70;70.40
11264;DHT22;5689;48.798;9.070;2023-08-31T13:22:13;29.10;65.80
11264;DHT22;5689;48.798;9.070;2023-08-31T13:24:43;29.30;65.80
11264;DHT22;5689;48.798;9.070;2023-08-31T13:27:11;30.30;62.10
11264;DHT22;5689;48.798;9.070;2023-08-31T13:29:40;33.20;56.10
11264;DHT22;5689;48.798;9.070;2023-08-31T13:32:09;33.50;53.80
11264;DHT22;5689;48.798;9.070;2023-08-31T13:34:37;29.60;59.40
11264;DHT22;5689;48.798;9.070;2023-08-31T13:37:05;30.20;57.70
11264;DHT22;5689;48.798;9.070;2023-08-31T13:39:35;25.70;65.50
11264;DHT22;5689;48.798;9.070;2023-08-31T13:42:04;23.60;73.80
11264;DHT22;5689;48.798;9.070;2023-08-31T13:44:34;23.50;69.60
11264;DHT22;5689;48.798;9.070;2023-08-31T13:47:02;22.80;71.10
11264;DHT22;5689;48.798;9.070;2023-08-31T13:49:33;22.90;70.50
11264;DHT22;5689;48.798;9.070;2023-08-31T13:52:01;22.50;71.80
11264;DHT22;5689;48.798;9.070;2023-08-31T13:54:31;22.10;73.60
11264;DHT22;5689;48.798;9.070;2023-08-31T13:56:59;21.30;76.00
11264;DHT22;5689;48.798;9.070;2023-08-31T13:59:27;21.30;76.00
11264;DHT22;5689;48.798;9.070;2023-08-31T14:01:55;21.00;78.00
11264;DHT22;5689;48.798;9.070;2023-08-31T14:04:23;21.20;77.60
11264;DHT22;5689;48.798;9.070;2023-08-31T14:06:52;21.10;77.70
11264;DHT22;5689;48.798;9.070;2023-08-31T14:09:20;20.30;79.30
11264;DHT22;5689;48.798;9.070;2023-08-31T14:11:48;20.00;80.80
11264;DHT22;5689;48.798;9.070;2023-08-31T14:14:17;19.70;81.00
11264;DHT22;5689;48.798;9.070;2023-08-31T14:16:45;19.90;82.00
11264;DHT22;5689;48.798;9.070;2023-08-31T14:19:14;19.90;82.80
11264;DHT22;5689;48.798;9.070;2023-08-31T14:21:42;19.50;85.50
11264;DHT22;5689;48.798;9.070;2023-08-31T14:24:11;19.40;84.30
11264;DHT22;5689;48.798;9.070;2023-08-31T14:26:39;19.20;85.10
11264;DHT22;5689;48.798;9.070;2023-08-31T14:29:07;19.40;84.30
11264;DHT22;5689;48.798;9.070;2023-08-31T14:31:35;19.70;83.10
11264;DHT22;5689;48.798;9.070;2023-08-31T14:34:03;19.70;85.50
11264;DHT22;5689;48.798;9.070;2023-08-31T14:36:31;19.50;86.70
11264;DHT22;5689;48.798;9.070;2023-08-31T14:38:59;19.90;83.60
11264;DHT22;5689;48.798;9.070;2023-08-31T14:41:30;19.80;85.70
11264;DHT22;5689;48.798;9.070;2023-08-31T14:43:58;19.70;85.60
11264;DHT22;5689;48.798;9.070;2023-08-31T14:46:25;19.80;85.70
11264;DHT22;5689;48.798;9.070;2023-08-31T14:48:54;19.50;86.70
11264;DHT22;5689;48.798;9.070;2023-08-31T14:51:23;19.80;84.80
11264;DHT22;5689;48.798;9.070;2023-08-31T14:53:50;19.80;86.30
11264;DHT22;5689;48.798;9.070;2023-08-31T14:56:19;19.40;87.10
11264;DHT22;5689;48.798;9.070;2023-08-31T14:58:48;19.40;88.50
11264;DHT22;5689;48.798;9.070;2023-08-31T15:01:16;19.70;86.90
11264;DHT22;5689;48.798;9.070;2023-08-31T15:03:44;20.10;86.00
11264;DHT22;5689;48.798;9.070;2023-08-31T15:06:12;20.10;87.40
11264;DHT22;5689;48.798;9.070;2023-08-31T15:08:40;20.30;88.50
11264;DHT22;5689;48.798;9.070;2023-08-31T15:11:09;20.30;86.30
11264;DHT22;5689;48.798;9.070;2023-08-31T15:13:38;20.40;86.30
11264;DHT22;5689;48.798;9.070;2023-08-31T15:16:07;20.30;86.70
11264;DHT22;5689;48.798;9.070;2023-08-31T15:18:35;20.20;88.30
11264;DHT22;5689;48.798;9.070;2023-08-31T15:21:03;20.60;88.70
11264;DHT22;5689;48.798;9.070;2023-08-31T15:23:31;21.10;87.30
11264;DHT22;5689;48.798;9.070;2023-08-31T15:25:59;21.10;87.80
11264;DHT22;5689;48.798;9.070;2023-08-31T15:28:28;20.80;86.20
11264;DHT22;5689;48.798;9.070;2023-08-31T15:30:55;20.40;87.60
11264;DHT22;5689;48.798;9.070;2023-08-31T15:33:25;20.80;85.50
11264;DHT22;5689;48.798;9.070;2023-08-31T15:36:02;20.20;88.10
11264;DHT22;5689;48.798;9.070;2023-08-31T15:38:30;19.90;88.40
11264;DHT22;5689;48.798;9.070;2023-08-31T15:40:59;19.20;90.30
11264;DHT22;5689;48.798;9.070;2023-08-31T15:43:29;19.20;90.40
11264;DHT22;5689;48.798;9.070;2023-08-31T15:45:58;19.40;89.80
11264;DHT22;5689;48.798;9.070;2023-08-31T15:48:28;19.30;90.90
11264;DHT22;5689;48.798;9.070;2023-08-31T15:50:58;18.90;91.40
11264;DHT22;5689;48.798;9.070;2023-08-31T15:53:26;18.90;92.00
11264;DHT22;5689;48.798;9.070;2023-08-31T15:55:55;19.00;91.60
11264;DHT22;5689;48.798;9.070;2023-08-31T15:58:23;19.30;91.10
11264;DHT22;5689;48.798;9.070;2023-08-31T16:00:53;19.20;92.10